Time;durP1;ratioP1;P1;durP2;ratioP2;P2;SDS_P1;SDS_P2;PMS_P1;PMS_P2;Temp;Humidity;BMP_temperature;BMP_pressure;BME280_temperature;BME280_humidity;BME280_pressure;Samples;Min_cycle;Max_cycle;Signal;HPM_P1;HPM_P2
2022/12/07 00:01:03;;;;;;;14.13;9.15;;;;;;;1.56;100.00;101670.88;5102600;27;20028;-82
2022/12/07 00:03:29;;;;;;;11.25;5.85;;;;;;;1.52;100.00;101670.13;5105440;28;20369;-80
2022/12/07 00:05:58;;;;;;;12.27;6.00;;;;;;;1.51;100.00;101670.19;5090168;28;20070;-81
2022/12/07 00:08:23;;;;;;;16.65;7.65;;;;;;;1.48;100.00;101673.78;5072827;28;20088;-82
2022/12/07 00:10:49;;;;;;;9.07;5.22;;;;;;;1.44;100.00;101670.41;5102642;28;20035;-83
2022/12/07 00:13:15;;;;;;;8.60;3.47;;;;;;;1.33;100.00;101673.41;5072519;28;20040;-83
2022/12/07 00:15:41;;;;;;;10.02;4.28;;;;;;;1.29;100.00;101671.78;5100953;28;20035;-83
2022/12/07 00:18:07;;;;;;;9.90;4.88;;;;;;;1.30;100.00;101673.50;5100235;28;20035;-83
2022/12/07 00:20:33;;;;;;;6.65;4.28;;;;;;;1.32;100.00;101676.06;5091745;28;20043;-83
2022/12/07 00:22:59;;;;;;;13.18;4.45;;;;;;;1.22;100.00;101671.16;5101585;28;20093;-83
2022/12/07 00:25:25;;;;;;;11.85;4.30;;;;;;;1.19;100.00;101671.28;5088970;28;20040;-83
2022/12/07 00:27:55;;;;;;;8.30;4.72;;;;;;;1.18;100.00;101671.34;5088152;28;20040;-83
2022/12/07 00:30:21;;;;;;;13.13;5.43;;;;;;;1.13;100.00;101673.22;5077260;28;20036;-83
2022/12/07 00:32:47;;;;;;;12.13;5.35;;;;;;;1.15;100.00;101671.44;5087095;28;20768;-83
2022/12/07 00:35:13;;;;;;;12.75;6.38;;;;;;;1.16;100.00;101675.72;5107968;28;20126;-83
2022/12/07 00:37:39;;;;;;;12.05;7.45;;;;;;;1.18;100.00;101676.53;5088480;28;20043;-83
2022/12/07 00:40:06;;;;;;;9.25;6.00;;;;;;;1.15;100.00;101671.44;5103016;28;20075;-83
2022/12/07 00:42:31;;;;;;;8.43;4.85;;;;;;;1.11;100.00;101661.09;5100018;28;20086;-83
2022/12/07 00:44:57;;;;;;;9.20;4.88;;;;;;;1.15;100.00;101661.03;5074174;28;20552;-83
2022/12/07 00:47:23;;;;;;;11.20;5.00;;;;;;;1.15;100.00;101671.44;5103170;28;20023;-83
2022/12/07 00:49:49;;;;;;;9.45;4.80;;;;;;;1.10;100.00;101674.16;5088925;28;20085;-82
2022/12/07 00:52:14;;;;;;;8.15;5.00;;;;;;;1.07;100.00;101669.06;5100610;28;20031;-82
2022/12/07 00:54:40;;;;;;;8.05;5.22;;;;;;;1.02;100.00;101671.81;5075662;28;20044;-82
2022/12/07 00:57:06;;;;;;;10.15;4.80;;;;;;;0.97;100.00;101669.38;5115945;27;20026;-82
2022/12/07 00:59:32;;;;;;;13.80;6.00;;;;;;;0.95;100.00;101665.13;5103501;28;20126;-82
2022/12/07 01:01:58;;;;;;;11.40;5.80;;;;;;;0.93;100.00;101661.72;5081061;28;20032;-81
2022/12/07 01:04:24;;;;;;;8.25;5.32;;;;;;;0.94;100.00;101658.25;5104488;28;20441;-82
2022/12/07 01:06:49;;;;;;;9.38;5.85;;;;;;;0.93;100.00;101664.31;5103618;28;20032;-82
2022/12/07 01:09:15;;;;;;;10.75;6.47;;;;;;;0.90;100.00;101672.25;5080329;28;20066;-82
2022/12/07 01:11:41;;;;;;;9.50;6.65;;;;;;;0.89;100.00;101667.94;5102888;28;20381;-82
2022/12/07 01:14:09;;;;;;;9.85;6.32;;;;;;;0.87;100.00;101665.41;5103095;28;20586;-82
2022/12/07 01:16:34;;;;;;;18.60;9.20;;;;;;;0.91;100.00;101668.75;5105047;28;20063;-82
2022/12/07 01:19:04;;;;;;;17.20;10.95;;;;;;;0.90;100.00;101667.91;5104383;28;20032;-81
2022/12/07 01:21:35;;;;;;;17.10;10.02;;;;;;;0.94;100.00;101663.44;5083393;28;20046;-82
2022/12/07 01:24:06;;;;;;;12.23;7.78;;;;;;;0.98;100.00;101665.03;5095460;28;20116;-82
2022/12/07 01:26:32;;;;;;;14.13;9.23;;;;;;;0.92;100.00;101658.28;5105695;28;20058;-82
2022/12/07 01:29:00;;;;;;;11.88;7.38;;;;;;;0.96;100.00;101659.88;5074752;28;20497;-82
2022/12/07 01:31:28;;;;;;;7.30;4.75;;;;;;;1.04;100.00;101650.94;5105495;28;20058;-82
2022/12/07 01:33:57;;;;;;;23.05;12.85;;;;;;;1.11;100.00;101652.44;5088936;28;20032;-82
2022/12/07 01:36:29;;;;;;;41.53;20.35;;;;;;;1.15;100.00;101654.03;5081212;28;20060;-82
2022/12/07 01:38:58;;;;;;;24.83;13.25;;;;;;;1.17;100.00;101648.78;5104939;28;20035;-81
2022/12/07 01:41:27;;;;;;;20.33;9.05;;;;;;;1.14;100.00;101643.66;5085306;28;20122;-82
2022/12/07 01:44:25;;;;;;;12.88;5.70;;;;;;;1.06;100.00;101639.59;5076905;28;20487;-81
2022/12/07 01:46:57;;;;;;;8.57;4.70;;;;;;;0.97;100.00;101647.72;5103463;28;20035;-81
2022/12/07 01:49:27;;;;;;;10.75;5.20;;;;;;;0.88;100.00;101642.81;5091450;28;20042;-82
2022/12/07 01:52:26;;;;;;;9.10;4.88;;;;;;;0.82;100.00;101652.53;5111714;28;20491;-81
2022/12/07 01:54:56;;;;;;;9.60;4.85;;;;;;;0.80;100.00;101643.06;5093688;27;20039;-82
2022/12/07 01:57:22;;;;;;;7.20;4.70;;;;;;;0.73;100.00;101640.66;5109105;28;20031;-82
2022/12/07 01:59:50;;;;;;;8.57;4.85;;;;;;;0.73;100.00;101637.22;5086874;28;20040;-81
2022/12/07 02:02:25;;;;;;;11.35;5.03;;;;;;;0.72;100.00;101631.16;5081756;28;20476;-82
2022/12/07 02:04:53;;;;;;;11.05;4.55;;;;;;;0.74;100.00;101636.31;5107233;27;20024;-81
2022/12/07 02:07:20;;;;;;;7.75;4.22;;;;;;;0.75;100.00;101625.00;5089686;28;20464;-82
2022/12/07 02:09:46;;;;;;;7.70;3.80;;;;;;;0.75;100.00;101627.59;5087106;28;20054;-82
2022/12/07 02:12:12;;;;;;;7.78;3.85;;;;;;;0.74;100.00;101625.91;5105010;28;20554;-81
2022/12/07 02:14:38;;;;;;;6.75;4.88;;;;;;;0.71;100.00;101621.66;5086917;28;20043;-82
2022/12/07 02:17:20;;;;;;;7.47;4.43;;;;;;;0.71;100.00;101619.06;5110107;28;20032;-82
2022/12/07 02:20:11;;;;;;;9.23;4.05;;;;;;;0.63;100.00;101623.66;5097606;28;20536;-81
2022/12/07 02:23:04;;;;;;;9.10;4.95;;;;;;;0.54;100.00;101621.34;5100764;28;20028;-82
2022/12/07 02:25:36;;;;;;;11.75;4.57;;;;;;;0.40;100.00;101617.44;5089712;28;20039;-82
2022/12/07 02:28:06;;;;;;;9.05;4.63;;;;;;;0.26;100.00;101611.81;5088033;28;20040;-81
2022/12/07 02:30:40;;;;;;;9.48;4.00;;;;;;;0.21;100.00;101620.63;5108134;28;20035;-82
2022/12/07 02:33:24;;;;;;;8.18;4.28;;;;;;;0.19;100.00;101614.59;5094367;28;20530;-81
2022/12/07 02:36:17;;;;;;;8.80;3.55;;;;;;;0.13;100.00;101612.19;5111805;28;20031;-82
2022/12/07 02:39:17;;;;;;;8.50;3.83;;;;;;;0.15;100.00;101612.16;5104683;28;20036;-82
2022/12/07 02:41:48;;;;;;;14.07;3.67;;;;;;;0.15;100.00;101615.63;5088646;28;20065;-81
2022/12/07 02:44:19;;;;;;;6.75;2.55;;;;;;;0.12;100.00;101610.50;5102630;28;20050;-81
2022/12/07 02:46:57;;;;;;;5.90;3.05;;;;;;;0.18;100.00;101606.84;5112563;28;20031;-81
2022/12/07 02:49:26;;;;;;;12.85;3.55;;;;;;;0.28;100.00;101604.81;5102926;28;20028;-82
2022/12/07 02:51:52;;;;;;;8.85;3.05;;;;;;;0.34;100.00;101602.88;5085305;28;20038;-81
2022/12/07 02:54:20;;;;;;;6.97;2.47;;;;;;;0.39;100.00;101600.13;5103287;28;20026;-81
2022/12/07 02:56:46;;;;;;;8.68;2.65;;;;;;;0.40;100.00;101601.81;5090380;28;20114;-81
2022/12/07 02:59:59;;;;;;;9.13;3.10;;;;;;;0.43;100.00;101591.31;5105713;28;20127;-81
2022/12/07 03:02:46;;;;;;;8.55;2.47;;;;;;;0.45;100.00;101589.53;5096563;28;20120;-81
2022/12/07 03:05:12;;;;;;;8.48;2.45;;;;;;;0.44;100.00;101586.97;5084474;28;20024;-81
2022/12/07 03:07:51;;;;;;;8.15;2.60;;;;;;;0.49;100.00;101590.28;5091024;28;20399;-81
2022/12/07 03:10:28;;;;;;;6.15;2.13;;;;;;;0.56;100.00;101583.13;5089767;28;20036;-81
2022/12/07 03:13:07;;;;;;;7.72;2.25;;;;;;;0.59;100.00;101585.63;5065871;28;20130;-81
2022/12/07 03:15:53;;;;;;;11.10;3.78;;;;;;;0.60;100.00;101587.34;5075141;28;20036;-81
2022/12/07 03:18:23;;;;;;;6.47;2.08;;;;;;;0.58;100.00;101583.91;5103950;27;20027;-82
2022/12/07 03:20:53;;;;;;;8.32;2.95;;;;;;;0.58;100.00;101587.38;5065311;28;20035;-82
2022/12/07 03:23:21;;;;;;;7.55;2.38;;;;;;;0.59;100.00;101583.88;5093348;28;20028;-81
2022/12/07 03:25:52;;;;;;;6.63;2.70;;;;;;;0.56;100.00;101578.78;5084072;28;20114;-81
2022/12/07 03:28:22;;;;;;;7.22;2.92;;;;;;;0.56;100.00;101583.13;5107731;28;20044;-81
2022/12/07 03:30:59;;;;;;;9.38;2.35;;;;;;;0.55;100.00;101581.41;5106294;28;20090;-81
2022/12/07 03:33:51;;;;;;;4.68;2.38;;;;;;;0.56;100.00;101581.38;5108843;28;20027;-81
2022/12/07 03:36:30;;;;;;;6.18;3.00;;;;;;;0.56;100.00;101578.78;5085737;28;20038;-81
2022/12/07 03:39:31;;;;;;;4.75;2.35;;;;;;;0.58;100.00;101583.91;5101173;28;20026;-81
2022/12/07 03:41:59;;;;;;;8.90;2.88;;;;;;;0.61;100.00;101587.28;5102600;28;20031;-82
2022/12/07 03:44:26;;;;;;;9.13;2.85;;;;;;;0.66;100.00;101579.31;5107665;28;20435;-81
2022/12/07 03:47:07;;;;;;;6.65;2.50;;;;;;;0.75;100.00;101580.75;5101223;27;20821;-82
2022/12/07 03:49:54;;;;;;;6.30;2.78;;;;;;;0.81;100.00;101574.50;5104474;28;20114;-82
2022/12/07 03:52:26;;;;;;;7.35;2.92;;;;;;;0.85;100.00;101576.94;5067556;28;20039;-81
2022/12/07 03:54:57;;;;;;;10.85;3.08;;;;;;;0.86;100.00;101576.03;5093755;28;20054;-81
2022/12/07 03:57:26;;;;;;;12.07;4.10;;;;;;;0.86;100.00;101577.81;5109991;28;20499;-81
2022/12/07 03:59:55;;;;;;;10.55;4.82;;;;;;;0.79;100.00;101571.09;5102316;28;20050;-81
2022/12/07 04:02:23;;;;;;;10.73;6.72;;;;;;;0.69;100.00;101574.00;5088957;28;20035;-81
2022/12/07 04:04:49;;;;;;;12.10;6.22;;;;;;;0.63;100.00;101571.63;5084594;28;20036;-82
2022/12/07 04:07:16;;;;;;;12.30;5.63;;;;;;;0.62;100.00;101564.72;5100209;28;20456;-81
2022/12/07 04:09:42;;;;;;;7.60;4.95;;;;;;;0.61;100.00;101570.81;5087865;28;20146;-81
2022/12/07 04:12:07;;;;;;;9.50;4.10;;;;;;;0.59;100.00;101562.22;5098724;28;20039;-82
2022/12/07 04:14:33;;;;;;;6.35;4.30;;;;;;;0.55;100.00;101564.06;5095234;28;20577;-81
2022/12/07 04:16:59;;;;;;;8.88;4.78;;;;;;;0.54;100.00;101566.72;5104638;28;20467;-81
2022/12/07 04:19:31;;;;;;;9.00;4.80;;;;;;;0.52;100.00;101561.56;5089856;28;20042;-81
2022/12/07 04:21:59;;;;;;;13.45;5.10;;;;;;;0.53;100.00;101563.25;5081226;28;20507;-82
2022/12/07 04:24:25;;;;;;;8.52;4.88;;;;;;;0.56;100.00;101560.56;5090164;28;20461;-81
2022/12/07 04:26:51;;;;;;;13.07;5.03;;;;;;;0.59;100.00;101565.66;5088656;28;20034;-82
2022/12/07 04:29:17;;;;;;;9.98;5.07;;;;;;;0.63;100.00;101561.22;5100837;28;20032;-81
2022/12/07 04:31:44;;;;;;;10.82;4.82;;;;;;;0.68;100.00;101556.72;5101573;28;20115;-81
2022/12/07 04:34:10;;;;;;;7.28;3.35;;;;;;;0.69;100.00;101555.78;5086530;28;20030;-81
2022/12/07 04:36:36;;;;;;;9.60;4.38;;;;;;;0.78;100.00;101562.41;5068815;28;20114;-81
2022/12/07 04:39:03;;;;;;;7.88;5.03;;;;;;;0.83;100.00;101560.53;5085400;28;20028;-81
2022/12/07 04:41:29;;;;;;;9.27;5.07;;;;;;;0.83;100.00;101560.53;5083511;28;20042;-81
2022/12/07 04:43:56;;;;;;;8.07;5.93;;;;;;;0.78;100.00;101554.63;5068862;28;20031;-81
2022/12/07 04:46:23;;;;;;;10.80;6.50;;;;;;;0.61;100.00;101550.84;5063987;28;20028;-81
2022/12/07 04:48:50;;;;;;;13.57;6.03;;;;;;;0.54;100.00;101556.31;5101254;28;20031;-81
2022/12/07 04:51:23;;;;;;;11.25;5.80;;;;;;;0.57;100.00;101545.81;5088459;28;20032;-81
2022/12/07 04:53:50;;;;;;;11.88;6.00;;;;;;;0.61;100.00;101550.84;5080878;28;20044;-81
2022/12/07 04:56:16;;;;;;;8.68;5.47;;;;;;;0.70;100.00;101546.25;5086337;28;20118;-81
2022/12/07 04:58:44;;;;;;;11.85;5.72;;;;;;;0.73;100.00;101546.13;5107855;28;20437;-81
2022/12/07 05:01:10;;;;;;;11.63;6.85;;;;;;;0.73;100.00;101544.34;5101822;28;20395;-81
2022/12/07 05:03:37;;;;;;;14.07;6.78;;;;;;;0.74;100.00;101546.09;5087654;28;20039;-81
2022/12/07 05:06:04;;;;;;;11.35;7.63;;;;;;;0.71;100.00;101545.31;5094953;28;20109;-81
2022/12/07 05:08:30;;;;;;;13.88;8.80;;;;;;;0.68;100.00;101540.22;5101501;28;20036;-81
2022/12/07 05:10:55;;;;;;;12.07;7.22;;;;;;;0.58;100.00;101543.16;5106875;28;20395;-82
2022/12/07 05:13:22;;;;;;;12.65;8.02;;;;;;;0.52;100.00;101542.50;5089664;28;20100;-81
2022/12/07 05:15:48;;;;;;;15.65;9.65;;;;;;;0.45;100.00;101534.03;5084334;28;20096;-82
2022/12/07 05:18:15;;;;;;;15.27;8.88;;;;;;;0.43;100.00;101547.09;5104816;28;20475;-82
2022/12/07 05:20:42;;;;;;;11.65;8.02;;;;;;;0.37;100.00;101539.50;5112347;28;20059;-81
2022/12/07 05:23:08;;;;;;;13.55;7.50;;;;;;;0.37;100.00;101536.91;5107029;28;20090;-81
2022/12/07 05:25:34;;;;;;;13.10;7.85;;;;;;;0.39;100.00;101536.84;5092198;28;20059;-81
2022/12/07 05:27:59;;;;;;;15.57;8.27;;;;;;;0.40;100.00;101542.00;5090275;28;20118;-81
2022/12/07 05:30:26;;;;;;;12.50;7.50;;;;;;;0.41;100.00;101540.25;5089510;28;20024;-81
2022/12/07 05:32:52;;;;;;;14.63;7.85;;;;;;;0.35;100.00;101534.34;5092218;28;20044;-81
2022/12/07 05:35:19;;;;;;;14.35;7.47;;;;;;;0.33;100.00;101530.13;5106172;28;20062;-81
2022/12/07 05:37:45;;;;;;;13.15;8.60;;;;;;;0.31;100.00;101532.75;5080158;28;20078;-81
2022/12/07 05:40:13;;;;;;;12.52;7.57;;;;;;;0.34;100.00;101534.41;5104384;28;20031;-81
2022/12/07 05:42:40;;;;;;;14.25;7.20;;;;;;;0.33;100.00;101530.97;5094501;28;20032;-81
2022/12/07 05:45:07;;;;;;;14.10;8.10;;;;;;;0.33;100.00;101530.97;5090340;28;20034;-81
2022/12/07 05:47:33;;;;;;;11.70;6.90;;;;;;;0.33;100.00;101530.97;5107219;28;20071;-81
2022/12/07 05:49:58;;;;;;;14.82;7.63;;;;;;;0.38;100.00;101524.75;5084937;28;20369;-81
2022/12/07 05:52:24;;;;;;;10.52;7.05;;;;;;;0.38;100.00;101527.34;5088085;28;20400;-81
2022/12/07 05:54:50;;;;;;;11.45;7.28;;;;;;;0.35;100.00;101523.94;5103217;28;20035;-81
2022/12/07 05:57:16;;;;;;;12.80;7.78;;;;;;;0.36;100.00;101525.66;5109677;28;20080;-81
2022/12/07 05:59:42;;;;;;;9.18;7.00;;;;;;;0.36;100.00;101530.88;5109606;28;20833;-81
2022/12/07 06:02:11;;;;;;;11.90;7.03;;;;;;;0.38;100.00;101527.34;5110432;28;20027;-81
2022/12/07 06:04:40;;;;;;;12.45;6.90;;;;;;;0.38;100.00;101520.41;5085586;28;20407;-80
2022/12/07 06:07:06;;;;;;;14.02;8.23;;;;;;;0.43;100.00;101526.28;5087184;28;20031;-81
2022/12/07 06:09:33;;;;;;;9.07;6.50;;;;;;;0.46;100.00;101520.97;5092901;28;20533;-80
2022/12/07 06:14:44;;;;;;;11.52;6.28;;;;;;;0.52;100.00;101514.75;5111077;28;20028;-81
2022/12/07 06:17:12;;;;;;;9.75;5.72;;;;;;;0.54;100.00;101522.50;5108410;28;20190;-81
2022/12/07 06:19:38;;;;;;;8.73;4.93;;;;;;;0.57;100.00;101520.66;5087906;28;20047;-81
2022/12/07 06:22:04;;;;;;;10.20;6.20;;;;;;;0.60;100.00;101525.75;5084325;28;20030;-81
2022/12/07 06:24:31;;;;;;;10.40;5.65;;;;;;;0.61;100.00;101518.78;5106143;28;20039;-81
2022/12/07 06:26:57;;;;;;;11.73;6.15;;;;;;;0.61;100.00;101521.38;5105494;28;20093;-81
2022/12/07 06:29:23;;;;;;;11.38;5.60;;;;;;;0.60;100.00;101523.16;5090179;28;20511;-81
2022/12/07 06:31:49;;;;;;;11.82;6.40;;;;;;;0.64;100.00;101518.66;5102552;28;20063;-81
2022/12/07 06:34:18;;;;;;;10.35;5.80;;;;;;;0.60;100.00;101517.94;5103871;28;20472;-81
2022/12/07 06:36:44;;;;;;;9.50;5.03;;;;;;;0.58;100.00;101519.72;5092216;28;20035;-81
2022/12/07 06:39:10;;;;;;;9.07;5.68;;;;;;;0.54;100.00;101523.31;5097429;28;20182;-81
2022/12/07 06:41:36;;;;;;;10.18;5.85;;;;;;;0.52;100.00;101521.69;5084572;28;20132;-81
2022/12/07 06:44:04;;;;;;;6.72;4.60;;;;;;;0.45;100.00;101515.84;5088875;28;20561;-81
2022/12/07 06:46:29;;;;;;;8.98;4.35;;;;;;;0.44;100.00;101521.94;5108930;28;20103;-81
2022/12/07 06:48:55;;;;;;;8.68;4.70;;;;;;;0.46;100.00;101520.16;5082912;28;20128;-81
2022/12/07 06:51:21;;;;;;;8.73;4.60;;;;;;;0.47;100.00;101524.44;5088340;28;20069;-81
2022/12/07 06:53:47;;;;;;;12.68;4.75;;;;;;;0.46;100.00;101526.19;5122753;27;20074;-81
2022/12/07 06:56:13;;;;;;;7.45;4.85;;;;;;;0.48;100.00;101524.41;5082649;28;20031;-81
2022/12/07 06:58:39;;;;;;;9.90;4.97;;;;;;;0.51;100.00;101522.59;5081221;28;20476;-81
2022/12/07 07:01:13;;;;;;;7.45;3.20;;;;;;;0.53;100.00;101523.38;5086878;28;20759;-81
2022/12/07 07:03:39;;;;;;;8.88;3.75;;;;;;;0.52;100.00;101522.53;5066005;28;20059;-81
2022/12/07 07:06:07;;;;;;;6.07;3.30;;;;;;;0.54;100.00;101517.28;5089995;28;20027;-81
2022/12/07 07:08:34;;;;;;;10.48;3.78;;;;;;;0.55;100.00;101518.97;5101989;28;20077;-82
2022/12/07 07:11:00;;;;;;;6.25;3.17;;;;;;;0.53;100.00;101526.84;5102841;28;20105;-83
2022/12/07 07:13:27;;;;;;;6.22;2.45;;;;;;;0.49;100.00;101520.06;5107148;28;20044;-82
2022/12/07 07:15:53;;;;;;;6.22;3.22;;;;;;;0.49;100.00;101512.25;5100575;28;20032;-81
2022/12/07 07:18:18;;;;;;;6.88;2.72;;;;;;;0.50;100.00;101513.94;5088308;28;20110;-81
2022/12/07 07:20:44;;;;;;;6.22;2.95;;;;;;;0.51;100.00;101512.19;5107647;28;20495;-81
2022/12/07 07:23:10;;;;;;;6.28;2.97;;;;;;;0.53;100.00;101512.97;5099548;28;20073;-81
2022/12/07 07:25:36;;;;;;;7.85;3.42;;;;;;;0.54;100.00;101518.13;5083531;28;20036;-82
2022/12/07 07:28:02;;;;;;;5.18;3.25;;;;;;;0.52;100.00;101514.75;5107617;28;20391;-81
2022/12/07 07:30:27;;;;;;;5.88;3.20;;;;;;;0.47;100.00;101511.44;5075730;28;20499;-82
2022/12/07 07:33:01;;;;;;;10.57;3.97;;;;;;;0.49;100.00;101513.06;5102692;28;20042;-81
2022/12/07 07:35:28;;;;;;;9.90;4.38;;;;;;;0.48;100.00;101520.94;5105447;28;20039;-82
2022/12/07 07:37:54;;;;;;;6.57;4.07;;;;;;;0.52;100.00;101516.47;5106717;28;20028;-80
2022/12/07 07:40:20;;;;;;;7.35;3.80;;;;;;;0.48;100.00;101515.72;5108042;28;20413;-80
2022/12/07 07:42:50;;;;;;;6.43;3.83;;;;;;;0.43;100.00;101510.69;5107161;28;20035;-80
2022/12/07 07:45:17;;;;;;;11.43;4.03;;;;;;;0.38;100.00;101511.75;5099385;27;20038;-81
2022/12/07 07:47:43;;;;;;;5.47;3.35;;;;;;;0.32;100.00;101518.03;5104582;28;20092;-80
2022/12/07 07:50:09;;;;;;;7.70;3.67;;;;;;;0.29;100.00;101511.16;5101681;28;20040;-81
2022/12/07 07:52:35;;;;;;;6.70;3.50;;;;;;;0.20;100.00;101508.84;5103449;28;20552;-81
2022/12/07 07:55:01;;;;;;;8.63;3.75;;;;;;;0.13;100.00;101515.16;5094079;28;20040;-81
2022/12/07 07:57:27;;;;;;;14.63;8.18;;;;;;;0.11;100.00;101510.84;5083123;28;20031;-81
2022/12/07 07:59:53;;;;;;;32.58;21.17;;;;;;;0.05;100.00;101511.06;5108138;28;20084;-81
2022/12/07 08:02:21;;;;;;;44.78;30.65;;;;;;;0.09;100.00;101510.06;5088639;28;20032;-81
2022/12/07 08:04:47;;;;;;;13.00;9.57;;;;;;;0.09;100.00;101507.47;5104544;28;20629;-81
2022/12/07 08:07:14;;;;;;;15.15;8.35;;;;;;;0.08;100.00;101502.31;5104135;28;20035;-81
2022/12/07 08:09:40;;;;;;;14.40;8.60;;;;;;;0.03;100.00;101510.28;5089337;28;20063;-81
2022/12/07 08:12:06;;;;;;;14.82;10.10;;;;;;;0.02;100.00;101516.34;5088524;28;20059;-81
2022/12/07 08:14:32;;;;;;;12.65;6.35;;;;;;;0.00;100.00;101512.97;5090948;28;20032;-81
2022/12/07 08:16:58;;;;;;;19.42;9.68;;;;;;;-0.01;100.00;101517.31;5084404;28;20043;-81
2022/12/07 08:19:24;;;;;;;18.85;10.60;;;;;;;0.02;100.00;101513.75;5103876;28;20088;-81
2022/12/07 08:21:50;;;;;;;9.07;6.10;;;;;;;-0.01;100.00;101521.66;5087435;28;20034;-81
2022/12/07 08:24:16;;;;;;;16.88;8.68;;;;;;;-0.05;100.00;101523.47;5085075;28;20032;-81
2022/12/07 08:26:42;;;;;;;13.90;7.43;;;;;;;-0.08;100.00;101517.56;5086559;28;20119;-81
2022/12/07 08:29:08;;;;;;;16.13;9.43;;;;;;;-0.09;100.00;101521.91;5101715;28;20028;-80
2022/12/07 08:31:34;;;;;;;12.95;6.05;;;;;;;-0.06;100.00;101532.19;5087916;28;20099;-82
2022/12/07 08:33:59;;;;;;;9.32;6.20;;;;;;;-0.07;100.00;101521.84;5078029;28;20036;-80
2022/12/07 08:36:26;;;;;;;8.65;4.88;;;;;;;-0.14;100.00;101519.44;5040544;28;20042;-79
2022/12/07 08:38:52;;;;;;;12.52;5.28;;;;;;;-0.17;100.00;101521.28;5087360;28;20035;-81
2022/12/07 08:41:18;;;;;;;17.20;7.55;;;;;;;-0.19;100.00;101516.13;5086267;28;20039;-80
2022/12/07 08:43:44;;;;;;;12.32;6.10;;;;;;;-0.22;100.00;101518.81;5090368;28;20035;-81
2022/12/07 08:46:21;;;;;;;16.33;6.50;;;;;;;-0.17;100.00;101514.34;5084665;28;20031;-81
2022/12/07 08:48:55;;;;;;;10.88;5.75;;;;;;;-0.16;100.00;101520.41;5089163;28;20032;-80
2022/12/07 08:51:22;;;;;;;16.23;8.68;;;;;;;-0.19;100.00;101520.50;5105942;28;20120;-81
2022/12/07 08:53:50;;;;;;;11.25;6.68;;;;;;;-0.18;100.00;101523.03;5083659;28;20048;-81
2022/12/07 08:56:17;;;;;;;13.82;6.72;;;;;;;-0.19;100.00;101515.28;5110547;28;20035;-81
2022/12/07 08:58:43;;;;;;;11.05;5.90;;;;;;;-0.22;100.00;101523.19;5106756;28;20135;-81
2022/12/07 09:01:09;;;;;;;12.13;6.95;;;;;;;-0.27;100.00;101520.72;5107329;28;20036;-81
2022/12/07 09:03:35;;;;;;;23.42;14.68;;;;;;;-0.26;100.00;101518.09;5105773;28;20599;-80
2022/12/07 09:06:01;;;;;;;12.55;6.28;;;;;;;-0.22;100.00;101513.63;5091535;28;20047;-81
2022/12/07 09:08:42;;;;;;;9.23;4.65;;;;;;;-0.17;100.00;101523.88;5061417;28;20093;-82
2022/12/07 09:11:08;;;;;;;12.93;5.78;;;;;;;-0.16;100.00;101507.41;5106523;28;20045;-82
2022/12/07 09:13:33;;;;;;;7.88;5.05;;;;;;;-0.11;100.00;101510.69;5100911;28;20462;-81
2022/12/07 09:15:59;;;;;;;9.18;5.70;;;;;;;-0.07;100.00;101508.84;5089916;28;20452;-81
2022/12/07 09:18:25;;;;;;;10.48;5.43;;;;;;;-0.06;100.00;101502.75;5106868;28;20106;-81
2022/12/07 09:20:51;;;;;;;10.23;5.57;;;;;;;0.01;100.00;101511.19;5080788;28;20451;-81
2022/12/07 09:23:17;;;;;;;12.52;6.47;;;;;;;0.07;100.00;101506.66;5099337;28;20046;-81
2022/12/07 09:25:43;;;;;;;11.68;5.07;;;;;;;0.13;100.00;101502.16;5070322;28;20391;-81
2022/12/07 09:28:09;;;;;;;9.70;5.10;;;;;;;0.18;100.00;101503.72;5096519;28;20036;-81
2022/12/07 09:30:35;;;;;;;12.77;5.43;;;;;;;0.20;100.00;101503.66;5103221;28;20092;-81
2022/12/07 09:33:01;;;;;;;12.07;4.82;;;;;;;0.21;100.00;101498.41;5083720;28;20299;-81
2022/12/07 09:35:27;;;;;;;7.90;4.20;;;;;;;0.25;100.00;101501.75;5101258;28;20020;-82
2022/12/07 09:37:52;;;;;;;13.88;6.40;;;;;;;0.28;100.00;101504.25;5071178;28;20039;-82
2022/12/07 09:40:22;;;;;;;11.23;5.22;;;;;;;0.32;100.00;101494.63;5099459;28;20034;-81
2022/12/07 09:42:51;;;;;;;7.72;4.85;;;;;;;0.31;100.00;101501.56;5102247;28;20104;-81
2022/12/07 09:45:30;;;;;;;8.52;4.63;;;;;;;0.33;100.00;101504.97;5078154;28;20131;-81
2022/12/07 09:47:57;;;;;;;9.95;4.88;;;;;;;0.32;100.00;101511.03;5080777;28;20044;-81
2022/12/07 09:50:27;;;;;;;11.88;4.60;;;;;;;0.32;100.00;101505.03;5104719;28;20032;-81
2022/12/07 09:52:55;;;;;;;8.18;4.13;;;;;;;0.35;100.00;101510.13;5102408;28;20123;-81
2022/12/07 09:55:30;;;;;;;9.35;4.57;;;;;;;0.38;100.00;101509.16;5108019;28;20114;-81
2022/12/07 09:57:58;;;;;;;8.37;3.97;;;;;;;0.38;100.00;101503.94;5103044;28;20048;-80
2022/12/07 10:00:25;;;;;;;9.02;4.38;;;;;;;0.45;100.00;101501.09;5068028;28;20496;-81
2022/12/07 10:03:00;;;;;;;8.50;3.97;;;;;;;0.60;100.00;101498.88;5091098;28;20519;-81
2022/12/07 10:05:37;;;;;;;7.75;4.40;;;;;;;0.69;100.00;101497.69;5092441;28;20059;-81
2022/12/07 10:08:03;;;;;;;14.25;4.90;;;;;;;0.78;100.00;101499.13;5099972;28;20059;-81
2022/12/07 10:10:32;;;;;;;6.90;3.58;;;;;;;0.92;100.00;101501.22;5103096;28;20043;-82
2022/12/07 10:13:01;;;;;;;6.65;3.63;;;;;;;1.04;100.00;101502.53;5084083;28;20126;-82
2022/12/07 10:15:44;;;;;;;7.38;3.28;;;;;;;1.16;100.00;101512.53;5099537;28;20052;-81
2022/12/07 10:18:44;;;;;;;7.65;3.90;;;;;;;1.25;100.00;101503.50;5071253;28;20044;-81
2022/12/07 10:21:12;;;;;;;9.52;4.38;;;;;;;1.30;100.00;101500.72;5103396;28;20027;-81
2022/12/07 10:23:41;;;;;;;6.43;3.63;;;;;;;1.39;100.00;101492.56;5098104;28;20122;-82
2022/12/07 10:26:29;;;;;;;11.88;3.80;;;;;;;1.46;100.00;101494.03;5108269;28;20027;-81
2022/12/07 10:28:58;;;;;;;14.05;4.80;;;;;;;1.56;100.00;101488.47;5070500;28;20119;-81
2022/12/07 10:31:24;;;;;;;10.88;4.80;;;;;;;1.65;100.00;101485.50;5107954;28;20041;-81
2022/12/07 10:33:55;;;;;;;14.63;6.00;;;;;;;1.75;100.00;101479.91;5102662;28;20043;-81
2022/12/07 10:36:31;;;;;;;15.32;8.13;;;;;;;1.85;100.00;101473.41;5107799;28;20043;-81
2022/12/07 10:39:41;;;;;;;9.45;4.88;;;;;;;1.98;100.00;101471.16;5105895;28;20031;-81
2022/12/07 10:42:18;;;;;;;32.95;16.40;;;;;;;2.09;100.00;101478.53;5010046;28;20119;-80
2022/12/07 10:44:44;;;;;;;38.10;19.75;;;;;;;2.14;100.00;101468.78;5066652;28;20039;-81
2022/12/07 10:47:36;;;;;;;67.07;36.13;;;;;;;2.28;100.00;101470.81;5093192;28;20573;-81
2022/12/07 10:50:19;;;;;;;27.50;14.45;;;;;;;2.40;100.00;101461.63;5095874;28;20028;-81
2022/12/07 10:53:01;;;;;;;20.95;11.13;;;;;;;2.51;100.00;101453.31;5081238;28;20127;-82
2022/12/07 10:55:39;;;;;;;18.77;8.20;;;;;;;2.56;100.00;101448.75;5070878;28;20118;-81
2022/12/07 10:58:19;;;;;;;20.85;9.65;;;;;;;2.65;100.00;101447.50;5090094;28;20056;-81
2022/12/07 11:00:47;;;;;;;12.30;4.97;;;;;;;2.67;100.00;101450.91;5101379;28;20073;-81
2022/12/07 11:03:55;;;;;;;10.60;5.57;;;;;;;2.74;100.00;101451.44;5090228;28;20502;-81
2022/12/07 11:06:23;;;;;;;;;;;;;;;2.73;100.00;101440.19;5011948;28;20089;-81
2022/12/07 11:09:17;;;;;;;7.50;3.90;;;;;;;2.85;100.00;101443.16;5094344;28;19920;-82
2022/12/07 11:11:59;;;;;;;6.95;3.25;;;;;;;2.89;100.00;101436.88;5107318;28;20563;-82
2022/12/07 11:14:31;;;;;;;10.70;4.32;;;;;;;2.92;100.00;101441.09;5124045;27;20030;-81
2022/12/07 11:17:08;;;;;;;6.15;2.70;;;;;;;2.97;100.00;101424.31;5107838;28;20104;-81
2022/12/07 11:19:50;;;;;;;8.30;2.72;;;;;;;3.05;100.00;101423.09;5116690;27;20024;-81
2022/12/07 11:22:32;;;;;;;5.20;3.03;;;;;;;3.12;100.00;101424.53;5087693;28;20127;-81
2022/12/07 11:25:31;;;;;;;7.07;3.60;;;;;;;3.22;100.00;101430.16;5090112;28;20122;-83
2022/12/07 11:28:32;;;;;;;19.48;8.75;;;;;;;3.27;100.00;101422.94;5088327;28;20562;-83
2022/12/07 11:31:13;;;;;;;11.18;3.65;;;;;;;3.31;100.00;101421.06;5032561;28;20491;-81
2022/12/07 11:34:20;;;;;;;12.13;7.28;;;;;;;3.40;100.00;101411.91;5090015;28;20100;-80
2022/12/07 11:36:52;;;;;;;11.02;5.15;;;;;;;3.49;100.00;101411.47;5092820;28;20392;-81